Time;durP1;ratioP1;P1;durP2;ratioP2;P2;SDS_P1;SDS_P2;PMS_P1;PMS_P2;Temp;Humidity;BMP_temperature;BMP_pressure;BME280_temperature;BME280_humidity;BME280_pressure;Samples;Min_cycle;Max_cycle;Signal;HPM_P1;HPM_P2
2023/06/25 00:01:05;;;;;;;5.13;3.03;;;;;;;17.57;100.00;93129.19;5074884;28;20457;-75
2023/06/25 00:03:32;;;;;;;6.38;3.40;;;;;;;17.55;100.00;93126.84;5070765;28;20101;-76
2023/06/25 00:05:58;;;;;;;7.22;3.13;;;;;;;17.60;100.00;93120.91;5068346;28;20098;-75
2023/06/25 00:08:25;;;;;;;4.72;2.83;;;;;;;17.34;100.00;93120.81;5068188;28;20096;-75
2023/06/25 00:10:52;;;;;;;7.05;3.30;;;;;;;17.39;100.00;93122.66;5066407;28;20049;-75
2023/06/25 00:13:18;;;;;;;9.35;3.03;;;;;;;17.50;100.00;93112.03;5070319;28;20460;-75
2023/06/25 00:15:47;;;;;;;5.15;2.78;;;;;;;17.56;100.00;93119.84;5072060;28;20094;-74
2023/06/25 00:18:14;;;;;;;7.03;3.90;;;;;;;17.68;100.00;93119.63;5070493;28;20052;-74
2023/06/25 00:20:40;;;;;;;7.97;3.90;;;;;;;17.73;100.00;93115.22;5077598;28;20048;-74
2023/06/25 00:23:07;;;;;;;9.13;3.58;;;;;;;17.90;100.00;93116.81;5088931;28;20051;-74
2023/06/25 00:25:34;;;;;;;4.78;3.00;;;;;;;17.92;100.00;93125.16;5085596;28;20052;-74
2023/06/25 00:28:01;;;;;;;6.25;3.17;;;;;;;17.90;100.00;93130.59;5073653;28;20044;-74
2023/06/25 00:30:28;;;;;;;5.95;3.30;;;;;;;17.99;100.00;93132.66;5070187;28;20049;-73
2023/06/25 00:32:56;;;;;;;8.68;3.15;;;;;;;18.02;100.00;93134.78;5069768;28;20049;-74
2023/06/25 00:35:26;;;;;;;6.47;3.40;;;;;;;18.09;100.00;93131.97;5071936;28;20056;-74
2023/06/25 00:37:57;;;;;;;7.05;4.05;;;;;;;18.15;100.00;93131.69;5070071;28;20502;-74
2023/06/25 00:40:24;;;;;;;7.88;3.17;;;;;;;18.24;100.00;93139.75;5070329;28;20041;-74
2023/06/25 00:42:56;;;;;;;8.00;3.83;;;;;;;18.29;100.00;93139.75;5069999;28;20191;-74
2023/06/25 00:45:25;;;;;;;5.88;3.42;;;;;;;18.27;100.00;93136.66;5071758;28;20067;-74
2023/06/25 00:47:52;;;;;;;6.40;3.33;;;;;;;18.41;100.00;93157.72;5069707;28;20080;-74
2023/06/25 00:50:21;;;;;;;6.05;3.60;;;;;;;18.36;100.00;93162.91;5073958;28;20085;-74
2023/06/25 00:52:49;;;;;;;5.60;3.85;;;;;;;18.11;100.00;93163.66;5073769;28;20048;-73
2023/06/25 00:55:16;;;;;;;7.57;4.35;;;;;;;17.94;100.00;93166.44;5073040;28;20040;-73
2023/06/25 00:57:43;;;;;;;5.35;3.25;;;;;;;17.95;100.00;93166.19;5070968;28;20044;-73
2023/06/25 01:00:14;;;;;;;7.53;3.67;;;;;;;17.72;100.00;93177.81;5073966;28;20101;-74
2023/06/25 01:02:46;;;;;;;8.95;4.32;;;;;;;17.80;100.00;93171.34;5079776;28;20044;-74
2023/06/25 01:05:18;;;;;;;9.93;3.85;;;;;;;17.79;100.00;93173.19;5088575;28;20166;-74
2023/06/25 01:07:48;;;;;;;7.68;3.80;;;;;;;17.74;100.00;93173.16;5088149;28;20059;-73
2023/06/25 01:10:15;;;;;;;9.35;4.07;;;;;;;17.70;100.00;93169.50;5074391;28;20052;-73
2023/06/25 01:12:43;;;;;;;8.57;4.60;;;;;;;17.73;100.00;93174.19;5069446;28;20044;-73
2023/06/25 01:15:10;;;;;;;8.85;3.78;;;;;;;17.66;100.00;93161.44;5069138;28;20124;-74
2023/06/25 01:17:39;;;;;;;7.78;4.15;;;;;;;17.76;100.00;93171.88;5073665;28;20646;-74
2023/06/25 01:20:10;;;;;;;7.18;3.50;;;;;;;17.70;100.00;93169.50;5072384;28;20051;-74
2023/06/25 01:22:39;;;;;;;9.05;4.18;;;;;;;17.65;100.00;93162.47;5070171;28;20048;-74
2023/06/25 01:25:07;;;;;;;9.57;4.25;;;;;;;17.77;100.00;93170.81;5068585;28;20091;-73
2023/06/25 01:27:34;;;;;;;7.63;4.00;;;;;;;17.71;100.00;93165.84;5069988;28;20052;-73
2023/06/25 01:30:01;;;;;;;9.55;4.40;;;;;;;17.63;100.00;93162.72;5070075;28;20036;-74
2023/06/25 01:32:28;;;;;;;9.13;4.07;;;;;;;17.60;100.00;93176.22;5068398;28;20094;-73
2023/06/25 01:34:55;;;;;;;8.30;4.32;;;;;;;17.60;100.00;93183.25;5068829;28;20589;-73
2023/06/25 01:37:22;;;;;;;8.02;3.25;;;;;;;17.45;100.00;93169.16;5071356;28;20097;-73
2023/06/25 01:39:53;;;;;;;9.50;4.28;;;;;;;17.46;100.00;93178.50;5070998;28;20040;-73
2023/06/25 01:42:19;;;;;;;10.75;4.75;;;;;;;17.55;100.00;93188.41;5069161;28;20101;-73
2023/06/25 01:44:46;;;;;;;9.20;5.20;;;;;;;17.48;100.00;93160.06;5068720;28;20048;-73
2023/06/25 01:47:13;;;;;;;7.03;4.32;;;;;;;17.69;100.00;93193.91;5071089;28;20206;-73
2023/06/25 01:49:40;;;;;;;8.07;4.97;;;;;;;17.71;100.00;93191.84;5069136;28;20923;-73
2023/06/25 01:52:08;;;;;;;9.35;4.38;;;;;;;17.57;100.00;93181.13;5072952;28;20438;-76
2023/06/25 01:54:35;;;;;;;7.95;4.05;;;;;;;17.61;100.00;93198.56;5069011;28;20129;-77
2023/06/25 01:57:04;;;;;;;6.90;3.88;;;;;;;17.50;100.00;93184.75;5068721;28;20070;-77
2023/06/25 01:59:34;;;;;;;10.65;3.88;;;;;;;17.43;100.00;93201.59;5070522;28;20048;-73
2023/06/25 02:02:01;;;;;;;7.72;4.00;;;;;;;17.44;100.00;93203.16;5072405;28;20094;-73
2023/06/25 02:04:28;;;;;;;9.05;4.20;;;;;;;17.47;100.00;93203.44;5072198;28;20048;-72
2023/06/25 02:06:54;;;;;;;13.77;5.53;;;;;;;17.50;100.00;93209.94;5083160;28;20094;-73
2023/06/25 02:09:22;;;;;;;9.20;4.05;;;;;;;17.57;100.00;93204.50;5074418;28;20109;-73
2023/06/25 02:11:49;;;;;;;11.98;4.43;;;;;;;17.60;100.00;93199.59;5072873;28;20087;-73
2023/06/25 02:14:17;;;;;;;11.18;4.82;;;;;;;17.33;100.00;93191.94;5068737;28;20090;-73
2023/06/25 02:16:43;;;;;;;9.75;5.25;;;;;;;17.08;100.00;93190.78;5070102;28;20040;-72
2023/06/25 02:19:10;;;;;;;6.65;4.03;;;;;;;17.00;100.00;93192.00;5068043;28;20041;-72
2023/06/25 02:21:37;;;;;;;9.05;4.38;;;;;;;16.97;100.00;93187.28;5072634;28;20098;-72
2023/06/25 02:24:04;;;;;;;7.80;3.90;;;;;;;16.91;100.00;93188.28;5068054;28;20089;-72
2023/06/25 02:26:31;;;;;;;6.78;4.30;;;;;;;16.93;100.00;93181.03;5067863;28;20049;-73
2023/06/25 02:28:58;;;;;;;8.20;3.85;;;;;;;16.96;100.00;93186.50;5066780;28;20051;-73
2023/06/25 02:31:26;;;;;;;7.78;3.83;;;;;;;17.09;100.00;93187.16;5068294;28;20052;-73
2023/06/25 02:33:53;;;;;;;6.18;4.03;;;;;;;17.16;100.00;93185.09;5067807;28;20048;-73
2023/06/25 02:36:20;;;;;;;9.35;4.85;;;;;;;17.26;100.00;93189.56;5067113;28;20048;-73
2023/06/25 02:38:47;;;;;;;8.55;4.18;;;;;;;17.37;100.00;93198.19;5068360;28;20057;-72
2023/06/25 02:41:13;;;;;;;7.03;4.55;;;;;;;17.49;100.00;93193.56;5077492;28;20440;-74
2023/06/25 02:43:40;;;;;;;7.60;3.88;;;;;;;17.63;100.00;93191.31;5071617;28;20093;-73
2023/06/25 02:46:07;;;;;;;6.80;4.45;;;;;;;17.71;100.00;93191.84;5069279;28;20449;-73
2023/06/25 02:48:37;;;;;;;9.88;4.75;;;;;;;17.81;100.00;93197.06;5070306;28;20048;-73
2023/06/25 02:51:04;;;;;;;8.38;4.00;;;;;;;17.93;100.00;93196.06;5069171;28;20412;-73
2023/06/25 02:53:31;;;;;;;8.18;4.40;;;;;;;17.97;100.00;93190.09;5073929;28;20041;-73
2023/06/25 02:55:57;;;;;;;7.55;4.60;;;;;;;17.92;100.00;93197.09;5081132;28;20097;-72
2023/06/25 02:58:24;;;;;;;6.93;4.25;;;;;;;17.99;100.00;93193.25;5076090;28;20498;-73
2023/06/25 03:00:51;;;;;;;9.65;4.38;;;;;;;17.97;100.00;93197.91;5076611;28;20089;-72
2023/06/25 03:03:18;;;;;;;6.57;3.58;;;;;;;17.89;100.00;93191.41;5076896;28;20460;-72
2023/06/25 03:05:46;;;;;;;8.85;4.03;;;;;;;17.89;100.00;93194.00;5076386;28;20126;-72
2023/06/25 03:08:12;;;;;;;8.50;4.18;;;;;;;17.91;100.00;93191.13;5077349;28;20144;-72
2023/06/25 03:10:39;;;;;;;6.50;3.72;;;;;;;17.79;100.00;93193.97;5069557;28;20555;-73
2023/06/25 03:13:06;;;;;;;9.95;4.10;;;;;;;17.72;100.00;93196.78;5067205;28;20049;-73
2023/06/25 03:15:33;;;;;;;7.63;4.43;;;;;;;17.70;100.00;93188.47;5067710;28;20044;-73
2023/06/25 03:17:59;;;;;;;6.13;3.55;;;;;;;17.72;100.00;93196.00;5067794;28;20048;-73
2023/06/25 03:20:26;;;;;;;8.82;4.32;;;;;;;17.78;100.00;93192.41;5085703;28;20497;-74
2023/06/25 03:22:54;;;;;;;6.57;4.15;;;;;;;17.89;100.00;93193.19;5082237;28;20077;-73
2023/06/25 03:25:21;;;;;;;9.07;4.35;;;;;;;17.89;100.00;93194.00;5075415;28;20048;-72
2023/06/25 03:27:48;;;;;;;7.57;4.43;;;;;;;17.94;100.00;93188.03;5068638;28;20494;-72
2023/06/25 03:30:14;;;;;;;9.27;4.68;;;;;;;17.94;100.00;93182.03;5067938;28;20049;-72
2023/06/25 03:32:42;;;;;;;9.00;3.85;;;;;;;18.07;100.00;93186.78;5070875;28;20094;-72
2023/06/25 03:35:09;;;;;;;8.63;4.28;;;;;;;18.08;100.00;93175.34;5067333;28;20076;-73
2023/06/25 03:37:36;;;;;;;10.27;5.22;;;;;;;18.22;100.00;93183.44;5067196;28;20048;-72
2023/06/25 03:40:05;;;;;;;10.80;4.88;;;;;;;18.31;100.00;93186.31;5068069;28;20044;-72
2023/06/25 03:42:32;;;;;;;11.52;4.80;;;;;;;18.36;100.00;93178.50;5066703;28;20646;-73
2023/06/25 03:44:58;;;;;;;9.98;5.18;;;;;;;18.39;100.00;93170.22;5067243;28;20102;-73
2023/06/25 03:47:25;;;;;;;9.52;5.15;;;;;;;18.43;100.00;93162.66;5073993;28;20098;-72
2023/06/25 03:49:52;;;;;;;7.85;4.80;;;;;;;18.46;100.00;93154.31;5071027;28;20120;-73
2023/06/25 03:52:19;;;;;;;8.25;4.50;;;;;;;18.27;100.00;93157.44;5074818;28;20052;-73
2023/06/25 03:54:46;;;;;;;7.70;4.85;;;;;;;18.26;100.00;93152.50;5070874;28;20055;-73
2023/06/25 03:57:14;;;;;;;7.15;4.53;;;;;;;18.09;100.00;93140.50;5074378;28;20053;-73
2023/06/25 03:59:40;;;;;;;7.40;4.63;;;;;;;18.18;100.00;93129.63;5074805;28;20052;-73
2023/06/25 04:02:09;;;;;;;7.28;4.40;;;;;;;18.20;100.00;93125.72;5074999;28;20106;-73
2023/06/25 04:04:35;;;;;;;8.23;4.00;;;;;;;18.27;100.00;93120.25;5071064;28;20048;-73
2023/06/25 04:07:02;;;;;;;9.27;4.38;;;;;;;18.35;100.00;93117.16;5083179;28;20105;-73
2023/06/25 04:09:29;;;;;;;13.00;5.07;;;;;;;18.39;100.00;93109.59;5070698;28;20132;-73
2023/06/25 04:11:55;;;;;;;12.70;6.10;;;;;;;18.45;100.00;93103.34;5070740;28;20044;-73
2023/06/25 04:14:23;;;;;;;7.75;4.65;;;;;;;18.52;100.00;93100.50;5074144;28;20044;-73
2023/06/25 04:16:50;;;;;;;8.77;4.28;;;;;;;18.53;100.00;93094.25;5079209;28;20048;-72
2023/06/25 04:19:17;;;;;;;9.55;4.80;;;;;;;18.56;100.00;93085.91;5082769;28;20501;-73
2023/06/25 04:21:44;;;;;;;8.82;4.60;;;;;;;18.54;100.00;93075.00;5086792;28;20057;-73
2023/06/25 04:24:10;;;;;;;10.18;5.25;;;;;;;18.54;100.00;93059.38;5084538;28;20051;-73
2023/06/25 04:26:37;;;;;;;7.00;4.28;;;;;;;18.45;100.00;93043.53;5083695;28;20497;-73
2023/06/25 04:29:04;;;;;;;6.90;4.00;;;;;;;18.54;100.00;93056.78;5085909;28;20040;-72
2023/06/25 04:31:32;;;;;;;9.90;4.72;;;;;;;18.55;100.00;93066.16;5082115;28;20055;-72
2023/06/25 04:33:58;;;;;;;6.47;4.40;;;;;;;18.54;100.00;93086.19;5082309;28;20039;-72
2023/06/25 04:36:25;;;;;;;7.50;4.35;;;;;;;18.47;100.00;93090.09;5081617;28;20494;-72
2023/06/25 04:38:52;;;;;;;10.63;4.90;;;;;;;18.51;100.00;93111.94;5080343;28;20048;-72
2023/06/25 04:41:19;;;;;;;8.73;4.80;;;;;;;18.40;100.00;93124.16;5081756;28;20452;-72
2023/06/25 04:43:45;;;;;;;8.95;5.22;;;;;;;18.32;100.00;93125.47;5081616;28;20048;-73
2023/06/25 04:46:12;;;;;;;13.80;6.07;;;;;;;18.27;100.00;93104.66;5076645;28;20059;-73
2023/06/25 04:48:44;;;;;;;12.35;6.20;;;;;;;18.40;100.00;93116.34;5081127;28;20555;-73
2023/06/25 04:51:11;;;;;;;9.63;5.90;;;;;;;18.48;100.00;93121.06;5083504;28;20043;-73
2023/06/25 04:53:38;;;;;;;8.93;5.70;;;;;;;18.54;100.00;93107.00;5084218;28;20459;-73
2023/06/25 04:56:05;;;;;;;11.65;4.75;;;;;;;18.66;100.00;93109.31;5084410;28;20093;-73
2023/06/25 04:58:32;;;;;;;10.65;6.00;;;;;;;18.68;100.00;93122.06;5080504;28;20086;-73
2023/06/25 05:00:58;;;;;;;14.13;6.95;;;;;;;18.49;100.00;93114.00;5081072;28;20039;-72
2023/06/25 05:03:25;;;;;;;13.20;7.53;;;;;;;18.40;100.00;93108.56;5083236;28;20086;-72
2023/06/25 05:05:53;;;;;;;18.67;8.65;;;;;;;18.21;100.00;93124.69;5080558;28;20056;-72
2023/06/25 05:08:20;;;;;;;14.80;8.02;;;;;;;18.36;100.00;93121.31;5083451;28;20076;-72
2023/06/25 05:10:47;;;;;;;15.38;8.05;;;;;;;18.29;100.00;93126.75;5082955;28;20040;-72
2023/06/25 05:13:13;;;;;;;20.98;9.68;;;;;;;18.32;100.00;93129.91;5081685;28;20463;-72
2023/06/25 05:15:41;;;;;;;27.05;8.88;;;;;;;18.37;100.00;93129.91;5075064;28;20089;-72
2023/06/25 05:18:08;;;;;;;16.25;8.35;;;;;;;18.46;100.00;93135.34;5075150;28;20043;-73
2023/06/25 05:20:36;;;;;;;14.75;8.07;;;;;;;18.53;100.00;93138.47;5074798;28;20048;-72
2023/06/25 05:23:06;;;;;;;20.25;9.10;;;;;;;18.72;100.00;93133.50;5074860;28;20091;-73
2023/06/25 05:25:33;;;;;;;13.98;8.07;;;;;;;18.90;100.00;93124.38;5078499;28;20051;-72
2023/06/25 05:28:01;;;;;;;20.08;8.93;;;;;;;19.05;100.00;93128.00;5075961;28;20114;-72
2023/06/25 05:30:28;;;;;;;19.77;10.23;;;;;;;19.31;100.00;93138.34;5074399;28;20163;-72
2023/06/25 05:32:55;;;;;;;14.63;8.60;;;;;;;19.45;100.00;93130.75;5074764;28;20044;-72
2023/06/25 05:35:22;;;;;;;15.50;8.13;;;;;;;19.63;100.00;93139.81;5072163;28;20521;-72
2023/06/25 05:37:49;;;;;;;15.18;7.50;;;;;;;19.71;100.00;93131.41;5071451;28;20048;-72
2023/06/25 05:40:17;;;;;;;12.80;7.72;;;;;;;19.88;100.00;93138.88;5075445;28;20048;-72
2023/06/25 05:42:44;;;;;;;12.60;7.45;;;;;;;20.15;100.00;93148.13;5078158;28;20051;-72
2023/06/25 05:45:11;;;;;;;12.20;6.70;;;;;;;20.33;100.00;93147.75;5071847;28;20599;-72
2023/06/25 05:47:38;;;;;;;12.93;5.75;;;;;;;20.50;100.00;93150.00;5071094;28;20655;-72
2023/06/25 05:50:05;;;;;;;11.73;6.20;;;;;;;20.64;100.00;93152.75;5071457;28;20052;-72
2023/06/25 05:52:32;;;;;;;11.23;4.97;;;;;;;20.78;100.00;93156.28;5070814;28;20137;-73
2023/06/25 05:54:59;;;;;;;8.93;4.60;;;;;;;20.84;100.00;93154.41;5070438;28;20044;-73
2023/06/25 05:57:27;;;;;;;10.00;5.70;;;;;;;21.03;100.00;93166.78;5071281;28;20391;-73
2023/06/25 05:59:54;;;;;;;6.70;4.22;;;;;;;21.14;100.00;93162.22;5070918;28;20674;-73
2023/06/25 06:02:20;;;;;;;7.70;4.75;;;;;;;21.28;100.00;93163.13;5070773;28;20048;-73
2023/06/25 06:04:47;;;;;;;9.00;4.97;;;;;;;21.42;100.00;93162.50;5070161;28;20047;-73
2023/06/25 06:07:14;;;;;;;9.57;4.43;;;;;;;21.50;100.00;93167.09;5070099;28;20094;-73
2023/06/25 06:09:40;;;;;;;8.13;4.32;;;;;;;21.51;100.00;93163.41;5070964;28;20608;-73
2023/06/25 06:12:08;;;;;;;9.02;4.47;;;;;;;21.61;100.00;93155.44;5070262;28;20105;-73
2023/06/25 06:14:38;;;;;;;9.27;4.75;;;;;;;21.66;100.00;93164.31;5069942;28;20506;-73
2023/06/25 06:17:05;;;;;;;7.32;3.88;;;;;;;21.80;100.00;93154.72;5072333;28;20053;-73
2023/06/25 06:19:32;;;;;;;9.05;5.15;;;;;;;21.94;100.00;93157.41;5069884;28;20075;-72
2023/06/25 06:21:59;;;;;;;10.65;4.60;;;;;;;;;;5069553;28;20107;-72
2023/06/25 06:24:27;;;;;;;8.27;4.13;;;;;;;22.35;100.00;93157.94;5070462;28;20048;-73
2023/06/25 06:26:53;;;;;;;7.78;4.45;;;;;;;22.34;100.00;93130.19;5069777;28;20049;-72
2023/06/25 06:29:20;;;;;;;7.57;3.70;;;;;;;22.59;100.00;93159.69;5073336;28;20097;-72
2023/06/25 06:31:48;;;;;;;4.85;3.38;;;;;;;22.86;100.00;93160.81;5072280;28;20085;-72
2023/06/25 06:34:15;;;;;;;6.38;3.17;;;;;;;22.96;100.00;93158.78;5070159;28;20048;-72
2023/06/25 06:36:42;;;;;;;6.97;3.38;;;;;;;22.85;100.00;93164.50;5072212;28;20048;-72
2023/06/25 06:39:08;;;;;;;5.95;2.95;;;;;;;22.98;100.00;93158.50;5069610;28;20979;-72
2023/06/25 06:41:35;;;;;;;5.65;3.30;;;;;;;22.16;100.00;93158.69;5070205;28;20044;-72
2023/06/25 06:44:11;;;;;;;7.30;3.25;;;;;;;22.16;100.00;93154.25;5078490;28;20093;-72
2023/06/25 06:46:38;;;;;;;6.95;4.05;;;;;;;22.30;100.00;93143.06;5077286;28;20433;-72
2023/06/25 06:49:06;;;;;;;6.65;3.10;;;;;;;22.07;100.00;93121.19;5072841;28;20102;-73
2023/06/25 06:51:33;;;;;;;5.55;3.35;;;;;;;22.55;100.00;93138.53;5071031;28;20150;-72
2023/06/25 06:54:00;;;;;;;6.28;3.33;;;;;;;22.80;100.00;93132.09;5077454;28;20117;-72
2023/06/25 06:56:27;;;;;;;5.65;3.53;;;;;;;23.21;100.00;93132.44;5077276;28;20110;-73
2023/06/25 06:58:53;;;;;;;5.70;3.80;;;;;;;23.73;100.00;93129.63;5078093;28;20052;-73
2023/06/25 07:01:20;;;;;;;5.78;3.38;;;;;;;23.45;100.00;93128.84;5075554;28;20048;-72
2023/06/25 07:03:47;;;;;;;4.55;2.95;;;;;;;24.06;100.00;93117.41;5075911;28;20040;-72
2023/06/25 07:06:15;;;;;;;6.10;3.47;;;;;;;24.23;100.00;93125.44;5078526;28;20071;-72
2023/06/25 07:08:41;;;;;;;4.47;2.70;;;;;;;24.13;100.00;93118.56;5079292;28;20047;-72
2023/06/25 07:11:08;;;;;;;5.47;2.58;;;;;;;23.14;100.00;93111.84;5081648;28;20089;-72
2023/06/25 07:13:35;;;;;;;5.10;2.53;;;;;;;23.76;100.00;93110.66;5079541;28;20044;-71
2023/06/25 07:16:02;;;;;;;4.20;2.13;;;;;;;23.83;98.22;93128.63;5079501;28;20085;-71
2023/06/25 07:18:28;;;;;;;3.45;2.13;;;;;;;23.89;100.00;93124.81;5075866;28;20044;-71
2023/06/25 07:20:55;;;;;;;3.47;1.88;;;;;;;23.93;100.00;93125.00;5075447;28;20662;-72
2023/06/25 07:23:23;;;;;;;5.78;2.85;;;;;;;24.23;100.00;93130.69;5079484;28;20165;-72
2023/06/25 07:25:50;;;;;;;4.00;2.33;;;;;;;23.88;99.83;93135.59;5075004;28;20044;-72
2023/06/25 07:28:16;;;;;;;5.03;2.75;;;;;;;24.03;100.00;93137.13;5077803;28;20101;-72
2023/06/25 07:30:43;;;;;;;3.38;1.77;;;;;;;23.89;100.00;93132.69;5075275;28;20459;-72
2023/06/25 07:33:10;;;;;;;4.07;2.45;;;;;;;23.56;100.00;93137.31;5071562;28;20048;-72
2023/06/25 07:35:37;;;;;;;4.65;2.42;;;;;;;22.96;100.00;93132.59;5070340;28;20075;-71
2023/06/25 07:38:03;;;;;;;5.43;2.50;;;;;;;22.02;100.00;93130.66;5070311;28;20144;-72
2023/06/25 07:40:31;;;;;;;5.00;2.92;;;;;;;22.07;100.00;93132.41;5070499;28;20137;-72
2023/06/25 07:42:58;;;;;;;4.30;2.67;;;;;;;21.57;100.00;93130.94;5076956;28;20513;-72
2023/06/25 07:45:25;;;;;;;4.53;2.80;;;;;;;21.42;100.00;93128.53;5080122;28;20049;-72
2023/06/25 07:47:51;;;;;;;4.95;2.72;;;;;;;21.64;100.00;93125.38;5077764;28;20084;-72
2023/06/25 07:50:18;;;;;;;4.75;2.92;;;;;;;21.80;100.00;93128.56;5077423;28;20547;-72
2023/06/25 07:52:45;;;;;;;5.47;2.70;;;;;;;21.61;100.00;93124.09;5076355;28;20134;-72
2023/06/25 07:55:11;;;;;;;4.32;2.80;;;;;;;21.38;100.00;93130.88;5073856;28;20105;-72
2023/06/25 07:57:40;;;;;;;6.00;3.15;;;;;;;21.59;100.00;93135.88;5078566;28;20436;-72
2023/06/25 08:00:07;;;;;;;6.53;3.67;;;;;;;21.73;100.00;93125.53;5079907;28;20040;-72
2023/06/25 08:02:34;;;;;;;4.32;3.30;;;;;;;21.32;100.00;93116.34;5076485;28;20044;-72
2023/06/25 08:05:01;;;;;;;6.53;3.65;;;;;;;20.92;100.00;93126.97;5068180;28;20053;-72
2023/06/25 08:07:27;;;;;;;5.95;4.00;;;;;;;21.06;100.00;93124.47;5069585;28;20051;-72
2023/06/25 08:09:54;;;;;;;6.22;3.53;;;;;;;21.10;100.00;93122.84;5068039;28;20451;-72
2023/06/25 08:12:21;;;;;;;5.18;3.55;;;;;;;21.38;100.00;93120.44;5081003;28;20044;-72
2023/06/25 08:14:49;;;;;;;5.88;4.30;;;;;;;21.62;100.00;93124.88;5085471;28;20605;-71
2023/06/25 08:17:16;;;;;;;7.13;3.55;;;;;;;21.31;100.00;93109.56;5069061;28;20044;-71
2023/06/25 08:19:42;;;;;;;6.07;3.88;;;;;;;21.15;100.00;93135.09;5067444;28;20497;-72
2023/06/25 08:22:09;;;;;;;6.35;3.55;;;;;;;20.91;100.00;93134.00;5075606;28;20094;-72
2023/06/25 08:24:36;;;;;;;8.32;3.95;;;;;;;21.09;100.00;93129.91;5085720;28;20048;-72
2023/06/25 08:27:03;;;;;;;7.68;4.45;;;;;;;21.01;100.00;93138.34;5084540;28;20504;-72
2023/06/25 08:29:30;;;;;;;6.20;3.95;;;;;;;20.83;100.00;93109.25;5071417;28;20498;-72
2023/06/25 08:31:58;;;;;;;6.70;4.30;;;;;;;20.88;100.00;93144.22;5066869;28;20049;-72
2023/06/25 08:34:25;;;;;;;5.68;3.70;;;;;;;20.90;100.00;93136.88;5068620;28;20559;-72
2023/06/25 08:36:52;;;;;;;6.45;3.50;;;;;;;20.68;100.00;93148.53;5070940;28;20044;-72
2023/06/25 08:39:18;;;;;;;6.10;3.45;;;;;;;20.61;100.00;93148.06;5070450;28;20658;-72
2023/06/25 08:41:45;;;;;;;7.30;3.75;;;;;;;20.89;100.00;93132.72;5070705;28;20122;-72
2023/06/25 08:44:12;;;;;;;7.35;3.60;;;;;;;21.11;100.00;93145.31;5074505;28;20048;-72
2023/06/25 08:46:45;;;;;;;4.75;3.20;;;;;;;21.31;100.00;93139.09;5073375;28;20048;-72
2023/06/25 08:49:14;;;;;;;4.65;2.75;;;;;;;21.65;100.00;93147.06;5070530;28;20474;-72
2023/06/25 08:51:41;;;;;;;4.72;2.70;;;;;;;21.69;100.00;93140.19;5072147;28;20055;-72
2023/06/25 08:54:08;;;;;;;4.80;2.67;;;;;;;21.53;100.00;93135.19;5070855;28;20048;-72
2023/06/25 08:56:35;;;;;;;4.82;2.75;;;;;;;21.22;100.00;93131.09;5071391;28;20052;-72
2023/06/25 08:59:02;;;;;;;4.75;2.40;;;;;;;21.22;100.00;93130.28;5069864;28;20684;-72
2023/06/25 09:01:29;;;;;;;5.15;2.55;;;;;;;21.29;100.00;93122.13;5071696;28;20048;-72
2023/06/25 09:03:55;;;;;;;4.07;2.60;;;;;;;21.59;100.00;93123.59;5070240;28;20098;-72
2023/06/25 09:06:24;;;;;;;4.75;2.28;;;;;;;21.36;100.00;93128.56;5070063;28;20052;-72
2023/06/25 09:08:50;;;;;;;4.15;2.30;;;;;;;21.22;100.00;93127.69;5073664;28;20055;-71
2023/06/25 09:11:17;;;;;;;5.68;3.33;;;;;;;21.01;100.00;93091.34;5069921;28;20045;-72
2023/06/25 09:13:45;;;;;;;3.85;2.72;;;;;;;21.47;100.00;93115.38;5069387;28;20110;-72
2023/06/25 09:16:12;;;;;;;4.65;2.70;;;;;;;21.68;100.00;93120.34;5075329;28;20055;-72
2023/06/25 09:18:39;;;;;;;3.92;2.38;;;;;;;21.75;100.00;93107.72;5070102;28;20460;-72
2023/06/25 09:21:07;;;;;;;5.75;2.75;;;;;;;21.82;100.00;93117.84;5087342;28;20048;-72
2023/06/25 09:23:37;;;;;;;6.05;2.78;;;;;;;21.96;100.00;93097.78;5079331;28;20084;-72
2023/06/25 09:26:06;;;;;;;3.97;2.53;;;;;;;22.34;100.00;93117.09;5069736;28;20079;-72
2023/06/25 09:28:32;;;;;;;3.65;2.20;;;;;;;22.31;100.00;93107.22;5069931;28;20143;-72
2023/06/25 09:31:00;;;;;;;4.28;2.22;;;;;;;22.02;100.00;93109.72;5072416;28;20090;-72
2023/06/25 09:33:33;;;;;;;4.28;1.80;;;;;;;22.32;100.00;93114.78;5069226;28;20102;-72
2023/06/25 09:36:01;;;;;;;3.38;1.73;;;;;;;22.24;100.00;93112.81;5069464;28;20046;-72
2023/06/25 09:38:28;;;;;;;2.67;1.55;;;;;;;22.30;100.00;93106.44;5072098;28;20178;-72
2023/06/25 09:40:58;;;;;;;3.55;1.80;;;;;;;22.53;100.00;93104.00;5076157;28;20421;-72
2023/06/25 09:43:26;;;;;;;2.78;1.67;;;;;;;22.99;100.00;93099.81;5076035;28;20055;-72
2023/06/25 09:45:53;;;;;;;3.28;2.13;;;;;;;22.82;100.00;93101.16;5068772;28;20044;-72
2023/06/25 09:48:23;;;;;;;5.30;2.08;;;;;;;22.72;100.00;93105.81;5074804;28;20051;-72
2023/06/25 09:50:51;;;;;;;4.32;1.73;;;;;;;22.97;99.28;93112.44;5071322;28;20048;-72
2023/06/25 09:53:22;;;;;;;3.95;2.00;;;;;;;22.59;100.00;93105.47;5068875;28;20048;-72
2023/06/25 09:55:51;;;;;;;2.85;1.65;;;;;;;22.98;100.00;93094.88;5068994;28;20457;-72
2023/06/25 09:58:19;;;;;;;4.20;2.25;;;;;;;23.07;100.00;93099.16;5071153;28;20090;-72
2023/06/25 10:00:46;;;;;;;3.20;1.70;;;;;;;22.93;97.88;93108.84;5074046;28;20048;-72
2023/06/25 10:03:15;;;;;;;3.22;1.83;;;;;;;23.27;97.99;93101.69;5069405;28;20562;-72
2023/06/25 10:05:42;;;;;;;3.03;1.77;;;;;;;23.76;99.09;93102.03;5068634;28;20436;-72
2023/06/25 10:08:10;;;;;;;3.33;1.67;;;;;;;23.73;91.26;93099.97;5074284;28;20106;-72
2023/06/25 10:10:37;;;;;;;3.55;1.63;;;;;;;23.91;93.91;93095.66;5070766;28;20504;-72
2023/06/25 10:13:04;;;;;;;4.15;1.88;;;;;;;24.17;93.86;93097.75;5080458;28;20048;-72
2023/06/25 10:15:34;;;;;;;2.67;1.50;;;;;;;24.29;91.17;93087.50;5069046;28;20525;-72
2023/06/25 10:18:02;;;;;;;3.58;1.60;;;;;;;24.60;89.71;93093.84;5069581;28;20509;-72
2023/06/25 10:20:30;;;;;;;3.35;1.85;;;;;;;25.14;85.87;93090.41;5069081;28;20052;-72
2023/06/25 10:23:06;;;;;;;2.88;1.85;;;;;;;25.74;86.57;93082.97;5068394;28;20497;-72
2023/06/25 10:25:33;;;;;;;3.72;1.88;;;;;;;25.87;87.02;93086.53;5072068;28;20041;-73
2023/06/25 10:28:05;;;;;;;4.63;2.00;;;;;;;25.82;83.04;93089.31;5075379;28;20056;-73
2023/06/25 10:30:38;;;;;;;3.67;1.90;;;;;;;26.40;86.07;93088.41;5071046;28;20127;-73
2023/06/25 10:33:06;;;;;;;3.35;2.22;;;;;;;26.96;81.14;93092.94;5068562;28;20120;-73
2023/06/25 10:35:39;;;;;;;5.68;1.70;;;;;;;26.69;77.26;93100.13;5071341;28;20105;-73
2023/06/25 10:38:06;;;;;;;3.55;1.73;;;;;;;26.57;75.53;93086.81;5068233;28;20076;-73
2023/06/25 10:40:34;;;;;;;4.20;1.80;;;;;;;26.76;78.61;93084.59;5070833;28;20567;-73
2023/06/25 10:43:00;;;;;;;3.95;2.20;;;;;;;26.89;80.24;93082.09;5068772;28;20102;-73
2023/06/25 10:45:27;;;;;;;3.10;1.75;;;;;;;26.40;77.77;93057.59;5073984;28;20045;-73
2023/06/25 10:48:04;;;;;;;3.65;2.08;;;;;;;26.35;81.18;93068.28;5070334;28;20447;-73
2023/06/25 10:50:31;;;;;;;3.70;1.88;;;;;;;26.77;78.87;93070.34;5067654;28;20051;-73
2023/06/25 10:52:58;;;;;;;3.97;2.28;;;;;;;27.10;79.54;93061.09;5070720;28;20049;-73
2023/06/25 10:55:25;;;;;;;4.43;1.95;;;;;;;26.80;78.07;93058.41;5068668;28;20558;-74
2023/06/25 10:57:54;;;;;;;4.63;1.80;;;;;;;27.07;77.15;93059.88;5070996;28;20548;-73
2023/06/25 11:00:22;;;;;;;3.60;2.08;;;;;;;25.86;77.61;93037.66;5072439;28;20135;-73
2023/06/25 11:02:51;;;;;;;4.18;2.00;;;;;;;25.96;76.44;93051.56;5080868;28;20052;-73
2023/06/25 11:05:20;;;;;;;3.55;1.52;;;;;;;26.47;80.06;93037.91;5068266;28;20139;-73
2023/06/25 11:07:53;;;;;;;3.38;1.85;;;;;;;26.45;78.66;93034.78;5068061;28;20189;-73
2023/06/25 11:10:22;;;;;;;3.70;2.00;;;;;;;25.92;80.36;93032.97;5067857;28;20045;-73
2023/06/25 11:12:48;;;;;;;3.58;1.98;;;;;;;26.42;77.24;93028.28;5077868;28;20048;-73
2023/06/25 11:15:16;;;;;;;3.85;2.08;;;;;;;25.94;77.71;93025.56;5068263;28;20076;-73
2023/06/25 11:17:43;;;;;;;3.35;1.70;;;;;;;26.57;79.14;93024.41;5069027;28;20063;-73
2023/06/25 11:20:11;;;;;;;3.08;1.52;;;;;;;27.10;76.39;93021.56;5067558;28;20820;-74
2023/06/25 11:22:42;;;;;;;4.15;2.38;;;;;;;26.95;78.09;93015.72;5067975;28;20056;-74
2023/06/25 11:25:10;;;;;;;3.28;1.85;;;;;;;26.98;76.78;93018.84;5071639;28;20132;-74
2023/06/25 11:27:38;;;;;;;3.35;2.13;;;;;;;27.18;78.81;93002.25;5074951;28;20089;-73